createdAt,value
2023-02-19T00:02:56.058Z,7.58
2023-02-19T00:06:58.733Z,7.57
2023-02-19T00:11:03.889Z,7.56
2023-02-19T00:15:07.001Z,7.59
2023-02-19T00:19:14.284Z,7.64
2023-02-19T00:23:16.963Z,7.63
2023-02-19T00:27:20.954Z,7.69
2023-02-19T00:31:25.878Z,7.67
2023-02-19T00:35:28.749Z,7.68
2023-02-19T00:39:31.572Z,7.61
2023-02-19T00:43:35.556Z,7.59
2023-02-19T00:47:38.148Z,7.55
2023-02-19T00:51:40.756Z,7.50
2023-02-19T00:55:44.057Z,7.47
2023-02-19T00:59:48.024Z,7.47
2023-02-19T01:03:50.732Z,7.50
2023-02-19T01:07:53.343Z,7.51
2023-02-19T01:11:55.980Z,7.58
2023-02-19T01:16:06.026Z,7.76
2023-02-19T01:20:09.445Z,7.76
2023-02-19T01:24:12.142Z,7.73
2023-02-19T01:28:14.776Z,7.73
2023-02-19T01:32:18.787Z,7.65
2023-02-19T01:36:21.603Z,7.59
2023-02-19T01:40:24.575Z,7.55
2023-02-19T01:45:16.009Z,7.45
2023-02-19T01:49:24.433Z,7.44
2023-02-19T01:53:32.413Z,7.42
2023-02-19T01:57:39.058Z,7.38
2023-02-19T02:01:42.081Z,7.33
2023-02-19T02:05:57.716Z,7.31
2023-02-19T02:10:18.003Z,7.31
2023-02-19T02:14:25.149Z,7.30
2023-02-19T02:18:39.186Z,7.29
2023-02-19T02:22:49.666Z,7.31
2023-02-19T02:27:12.361Z,7.28
2023-02-19T02:31:19.374Z,7.29
2023-02-19T02:35:25.117Z,7.28
2023-02-19T02:39:29.130Z,7.28
2023-02-19T02:43:32.066Z,7.27
2023-02-19T02:47:44.713Z,7.30
2023-02-19T02:51:51.923Z,7.27
2023-02-19T02:55:55.649Z,7.33
2023-02-19T02:59:58.378Z,7.36
2023-02-19T03:04:06.102Z,7.39
2023-02-19T03:08:11.856Z,7.41
2023-02-19T03:12:34.151Z,7.42
2023-02-19T03:16:57.191Z,7.42
2023-02-19T03:21:02.651Z,7.45
2023-02-19T03:25:39.614Z,7.42
2023-02-19T03:29:44.107Z,7.40
2023-02-19T03:33:51.272Z,7.40
2023-02-19T03:38:01.862Z,7.38
2023-02-19T03:42:12.624Z,7.39
2023-02-19T03:46:23.137Z,7.33
2023-02-19T03:50:30.296Z,7.31
2023-02-19T03:54:39.338Z,7.31
2023-02-19T03:58:51.985Z,7.33
2023-02-19T04:02:59.688Z,7.32
2023-02-19T04:07:02.444Z,7.31
2023-02-19T04:11:08.730Z,7.31
2023-02-19T04:15:15.369Z,7.30
2023-02-19T04:19:20.437Z,7.26
2023-02-19T04:23:27.180Z,7.25
2023-02-19T04:27:31.266Z,7.21
2023-02-19T04:31:36.258Z,7.19
2023-02-19T04:35:38.956Z,7.18
2023-02-19T04:39:41.541Z,7.13
2023-02-19T04:43:45.486Z,7.13
2023-02-19T04:47:48.038Z,7.16
2023-02-19T04:51:50.599Z,7.22
2023-02-19T04:55:53.877Z,7.25
2023-02-19T04:59:57.856Z,7.32
2023-02-19T05:04:00.466Z,7.40
2023-02-19T05:08:03.085Z,7.42
2023-02-19T05:12:05.879Z,7.40
2023-02-19T05:16:13.802Z,7.39
2023-02-19T05:20:16.513Z,7.41
2023-02-19T05:24:20.347Z,7.40
2023-02-19T05:28:28.605Z,7.38
2023-02-19T05:32:32.576Z,7.33
2023-02-19T05:36:37.143Z,7.31
2023-02-19T05:40:40.303Z,7.30
2023-02-19T05:44:43.190Z,7.29
2023-02-19T05:48:47.104Z,7.26
2023-02-19T05:52:49.780Z,7.23
2023-02-19T05:56:52.607Z,7.24
2023-02-19T06:00:55.317Z,7.21
2023-02-19T06:04:59.190Z,7.16
2023-02-19T06:09:01.825Z,7.13
2023-02-19T06:13:04.423Z,7.08
2023-02-19T06:17:07.191Z,7.04
2023-02-19T06:21:13.259Z,6.98
2023-02-19T06:25:15.925Z,6.98
2023-02-19T06:29:18.640Z,6.99
2023-02-19T06:33:21.183Z,7.00
2023-02-19T06:37:25.079Z,7.00
2023-02-19T06:41:27.746Z,7.07
2023-02-19T06:45:30.314Z,7.12
2023-02-19T06:49:32.859Z,7.11
2023-02-19T06:53:36.794Z,7.11
2023-02-19T06:57:39.363Z,7.08
2023-02-19T07:01:41.929Z,7.04
2023-02-19T07:05:44.630Z,7.10
2023-02-19T07:09:48.535Z,7.18
2023-02-19T07:13:55.886Z,7.23
2023-02-19T07:17:58.461Z,7.21
2023-02-19T07:22:01.036Z,7.18
2023-02-19T07:26:06.051Z,7.11
2023-02-19T07:30:09.628Z,7.11
2023-02-19T07:34:12.285Z,7.09
2023-02-19T07:38:17.874Z,7.15
2023-02-19T07:42:21.862Z,7.19
2023-02-19T07:46:25.430Z,7.19
2023-02-19T07:50:28.250Z,7.24
2023-02-19T07:54:30.832Z,7.25
2023-02-19T07:58:35.773Z,7.24
2023-02-19T08:02:55.746Z,7.25
2023-02-19T08:06:58.311Z,7.20
2023-02-19T08:11:19.322Z,7.38
2023-02-19T08:15:23.310Z,7.46
2023-02-19T08:19:26.208Z,7.38
2023-02-19T08:23:29.753Z,7.37
2023-02-19T08:27:32.445Z,7.36
2023-02-19T08:31:36.629Z,7.37
2023-02-19T08:35:40.056Z,7.35
2023-02-19T08:39:42.706Z,7.33
2023-02-19T08:43:45.534Z,7.36
2023-02-19T08:47:49.572Z,7.33
2023-02-19T08:51:52.206Z,7.35
2023-02-19T08:55:55.716Z,7.36
2023-02-19T08:59:58.882Z,7.43
2023-02-19T09:04:02.964Z,7.41
2023-02-19T09:08:05.638Z,7.44
2023-02-19T09:12:12.408Z,7.44
2023-02-19T09:16:15.052Z,7.47
2023-02-19T09:20:23.615Z,7.48
2023-02-19T09:24:29.069Z,7.57
2023-02-19T09:28:42.058Z,7.66
2023-02-19T09:32:44.723Z,7.74
2023-02-19T09:36:49.817Z,7.78
2023-02-19T09:41:01.343Z,7.73
2023-02-19T09:45:06.498Z,7.65
2023-02-19T09:49:15.529Z,7.59
2023-02-19T09:53:23.126Z,7.58
2023-02-19T09:57:29.758Z,7.53
2023-02-19T10:01:38.668Z,7.53
2023-02-19T10:05:42.467Z,7.57
2023-02-19T10:09:49.951Z,7.61
2023-02-19T10:13:55.829Z,7.65
2023-02-19T10:17:59.028Z,7.72
2023-02-19T10:22:04.353Z,7.86
2023-02-19T10:26:08.543Z,7.83
2023-02-19T10:30:20.824Z,7.81
2023-02-19T10:34:24.068Z,7.87
2023-02-19T10:38:31.658Z,7.90
2023-02-19T10:42:35.825Z,7.88
2023-02-19T10:46:44.140Z,7.92
2023-02-19T10:50:56.059Z,7.90
2023-02-19T10:55:16.236Z,7.91
2023-02-19T10:59:26.594Z,7.88
2023-02-19T11:03:29.343Z,7.85
2023-02-19T11:07:32.381Z,7.88
2023-02-19T11:11:37.508Z,7.93
2023-02-19T11:15:41.850Z,7.99
2023-02-19T11:19:48.719Z,8.01
2023-02-19T11:23:51.672Z,8.08
2023-02-19T11:27:59.407Z,8.14
2023-02-19T11:32:30.611Z,8.19
2023-02-19T11:36:35.273Z,8.27
2023-02-19T11:40:45.498Z,8.35
2023-02-19T11:45:01.412Z,8.36
2023-02-19T11:49:19.874Z,8.41
2023-02-19T11:53:27.352Z,8.48
2023-02-19T11:57:41.596Z,8.50
2023-02-19T12:02:05.926Z,8.45
2023-02-19T12:06:20.443Z,8.41
2023-02-19T12:10:26.367Z,8.37
2023-02-19T12:14:56.847Z,8.29
2023-02-19T12:19:17.682Z,8.26
2023-02-19T12:23:46.183Z,8.20
2023-02-19T12:27:59.450Z,8.20
2023-02-19T12:32:21.996Z,8.14
2023-02-19T12:36:34.480Z,8.15
2023-02-19T12:40:51.739Z,8.20
2023-02-19T12:44:59.261Z,8.32
2023-02-19T12:49:07.978Z,8.35
2023-02-19T12:53:25.480Z,8.38
2023-02-19T12:57:35.224Z,8.39
2023-02-19T13:01:44.530Z,8.37
2023-02-19T13:05:53.554Z,8.43
2023-02-19T13:10:00.301Z,8.31
2023-02-19T13:14:12.319Z,8.19
2023-02-19T13:18:20.401Z,8.20
2023-02-19T13:22:48.053Z,8.31
2023-02-19T13:27:04.997Z,8.43
2023-02-19T13:31:25.586Z,8.51
2023-02-19T13:35:54.394Z,8.72
2023-02-19T13:39:59.287Z,8.98
2023-02-19T13:44:04.186Z,9.19
2023-02-19T13:48:27.863Z,9.63
2023-02-19T13:52:43.851Z,9.36
2023-02-19T13:56:46.455Z,9.07
2023-02-19T14:00:51.136Z,8.99
2023-02-19T14:04:57.368Z,8.95
2023-02-19T14:09:00.538Z,8.99
2023-02-19T14:13:03.115Z,9.06
2023-02-19T14:17:26.478Z,9.25
2023-02-19T14:21:38.470Z,9.09
2023-02-19T14:25:52.690Z,9.08
2023-02-19T14:29:55.653Z,9.41
2023-02-19T14:34:01.855Z,9.45
2023-02-19T14:38:07.393Z,9.04
2023-02-19T14:42:18.253Z,8.88
2023-02-19T14:46:30.126Z,8.82
2023-02-19T14:50:35.038Z,8.75
2023-02-19T14:54:44.504Z,8.71
2023-02-19T14:58:47.107Z,8.70
2023-02-19T15:02:50.892Z,8.68
2023-02-19T15:06:56.697Z,8.66
2023-02-19T15:11:03.772Z,8.55
2023-02-19T15:15:07.811Z,8.48
2023-02-19T15:19:13.130Z,8.48
2023-02-19T15:23:21.982Z,8.48
2023-02-19T15:27:26.083Z,8.43
2023-02-19T15:31:30.192Z,8.33
2023-02-19T15:35:33.464Z,8.20
2023-02-19T15:39:39.084Z,8.12
2023-02-19T15:43:50.642Z,8.01
2023-02-19T15:47:57.333Z,7.88
2023-02-19T15:52:06.724Z,7.79
2023-02-19T15:56:13.192Z,7.71
2023-02-19T16:00:20.695Z,7.60
2023-02-19T16:04:23.415Z,7.21
2023-02-19T16:08:31.012Z,6.96
2023-02-19T16:12:33.877Z,6.92
2023-02-19T16:16:41.056Z,6.95
2023-02-19T16:20:48.773Z,7.00
2023-02-19T16:24:53.219Z,7.26
2023-02-19T16:28:56.778Z,7.14
2023-02-19T16:33:37.255Z,6.85
2023-02-19T16:37:44.189Z,6.63
2023-02-19T16:42:13.106Z,6.52
2023-02-19T16:46:15.843Z,6.40
2023-02-19T16:50:20.942Z,6.34
2023-02-19T16:54:25.104Z,6.28
2023-02-19T16:58:27.837Z,6.30
2023-02-19T17:02:30.650Z,6.40
2023-02-19T17:06:34.743Z,6.40
2023-02-19T17:10:38.715Z,6.28
2023-02-19T17:14:41.411Z,6.17
2023-02-19T17:18:44.027Z,6.11
2023-02-19T17:22:46.749Z,6.16
2023-02-19T17:26:50.721Z,6.10
2023-02-19T17:30:53.354Z,6.08
2023-02-19T17:34:55.955Z,6.05
2023-02-19T17:38:59.643Z,6.04
2023-02-19T17:43:03.800Z,5.98
2023-02-19T17:47:06.682Z,5.96
2023-02-19T17:51:09.702Z,5.88
2023-02-19T17:55:15.691Z,5.82
2023-02-19T17:59:19.818Z,5.75
2023-02-19T18:03:22.464Z,5.72
2023-02-19T18:07:25.101Z,5.69
2023-02-19T18:11:27.827Z,5.65
2023-02-19T18:15:32.124Z,5.66
2023-02-19T18:19:34.829Z,5.63
2023-02-19T18:23:37.496Z,5.57
2023-02-19T18:27:40.381Z,5.58
2023-02-19T18:31:44.423Z,5.60
2023-02-19T18:35:50.243Z,5.58
2023-02-19T18:39:53.411Z,5.59
2023-02-19T18:43:56.065Z,5.61
2023-02-19T18:48:00.032Z,5.56
2023-02-19T18:52:02.738Z,5.56
2023-02-19T18:56:08.936Z,5.57
2023-02-19T19:00:17.573Z,5.71
2023-02-19T19:04:21.657Z,5.73
2023-02-19T19:08:24.414Z,5.77
2023-02-19T19:12:27.042Z,5.84
2023-02-19T19:16:30.404Z,5.89
2023-02-19T19:20:34.324Z,5.83
2023-02-19T19:24:37.224Z,5.81
2023-02-19T19:28:44.293Z,5.76
2023-02-19T19:32:48.838Z,5.75
2023-02-19T19:36:52.853Z,5.77
2023-02-19T19:40:55.457Z,5.77
2023-02-19T19:44:58.156Z,5.84
2023-02-19T19:49:01.043Z,5.87
2023-02-19T19:53:04.981Z,5.86
2023-02-19T19:57:07.960Z,5.87
2023-02-19T20:01:10.977Z,5.82
2023-02-19T20:05:15.232Z,5.78
2023-02-19T20:09:19.687Z,5.71
2023-02-19T20:13:24.436Z,5.66
2023-02-19T20:17:28.851Z,5.64
2023-02-19T20:21:31.714Z,5.63
2023-02-19T20:25:35.681Z,5.67
2023-02-19T20:29:38.400Z,5.75
2023-02-19T20:33:41.005Z,5.74
2023-02-19T20:37:44.402Z,5.71
2023-02-19T20:41:49.524Z,5.75
2023-02-19T20:45:52.181Z,5.77
2023-02-19T20:49:54.810Z,5.78
2023-02-19T20:53:58.265Z,5.84
2023-02-19T20:58:02.256Z,5.87
2023-02-19T21:02:06.754Z,5.89
2023-02-19T21:06:09.653Z,5.92
2023-02-19T21:10:13.181Z,5.93
2023-02-19T21:14:17.586Z,5.91
2023-02-19T21:18:20.539Z,5.92
2023-02-19T21:22:23.218Z,5.90
2023-02-19T21:26:33.046Z,5.91
2023-02-19T21:30:37.061Z,5.87
2023-02-19T21:34:39.664Z,5.86
2023-02-19T21:38:42.285Z,5.81
2023-02-19T21:42:44.895Z,5.79
2023-02-19T21:46:48.944Z,5.82
2023-02-19T21:50:51.527Z,5.81
2023-02-19T21:54:54.339Z,5.80
2023-02-19T21:58:57.104Z,5.79
2023-02-19T22:03:01.116Z,5.78
2023-02-19T22:07:03.743Z,5.75
2023-02-19T22:11:06.482Z,5.74
2023-02-19T22:15:09.355Z,5.75
2023-02-19T22:19:14.366Z,5.83
2023-02-19T22:23:16.957Z,5.82
2023-02-19T22:27:19.690Z,5.85
2023-02-19T22:31:25.147Z,5.87
2023-02-19T22:35:29.398Z,5.88
2023-02-19T22:39:32.041Z,5.88
2023-02-19T22:43:34.703Z,5.86
2023-02-19T22:47:37.326Z,5.88
2023-02-19T22:51:41.568Z,5.87
2023-02-19T22:55:44.129Z,5.86
2023-02-19T22:59:46.777Z,5.88
2023-02-19T23:03:51.629Z,5.85
2023-02-19T23:07:55.678Z,5.87
2023-02-19T23:12:02.992Z,5.84
2023-02-19T23:16:06.089Z,5.82
2023-02-19T23:20:09.506Z,5.79
2023-02-19T23:24:14.122Z,5.78
2023-02-19T23:28:16.784Z,5.74
2023-02-19T23:32:20.875Z,5.78
2023-02-19T23:36:24.038Z,5.77
2023-02-19T23:40:28.132Z,5.74
2023-02-19T23:44:30.781Z,5.79
2023-02-19T23:48:33.741Z,5.73
2023-02-19T23:52:36.345Z,5.70
2023-02-19T23:56:40.452Z,5.66
